createdAt,value
2023-04-10T00:02:27.843Z,29.60
2023-04-10T00:05:30.292Z,29.60
2023-04-10T00:08:32.456Z,29.60
2023-04-10T00:11:35.123Z,29.60
2023-04-10T00:14:37.593Z,29.60
2023-04-10T00:17:39.948Z,29.60
2023-04-10T00:20:42.578Z,29.60
2023-04-10T00:23:44.746Z,29.60
2023-04-10T00:26:46.787Z,29.50
2023-04-10T00:29:49.059Z,29.50
2023-04-10T00:32:51.156Z,29.50
2023-04-10T00:35:53.422Z,29.50
2023-04-10T00:38:55.429Z,29.50
2023-04-10T00:41:57.794Z,29.50
2023-04-10T00:45:00.580Z,29.50
2023-04-10T00:48:04.276Z,29.50
2023-04-10T00:51:06.793Z,29.50
2023-04-10T00:54:10.506Z,29.50
2023-04-10T00:57:12.635Z,29.40
2023-04-10T01:00:16.893Z,29.40
2023-04-10T01:03:20.580Z,29.40
2023-04-10T01:06:57.046Z,29.40
2023-04-10T01:10:43.748Z,29.30
2023-04-10T01:13:56.992Z,29.30
2023-04-10T01:17:07.316Z,29.30
2023-04-10T01:20:24.278Z,29.20
2023-04-10T01:24:04.647Z,29.30
2023-04-10T01:27:20.946Z,29.20
2023-04-10T01:30:24.453Z,29.10
2023-04-10T01:34:00.141Z,29.10
2023-04-10T01:37:06.810Z,29.10
2023-04-10T01:40:14.364Z,29.10
2023-04-10T01:43:18.070Z,29.00
2023-04-10T01:46:21.945Z,29.00
2023-04-10T01:49:28.619Z,29.00
2023-04-10T01:52:32.141Z,28.90
2023-04-10T01:55:34.638Z,28.90
2023-04-10T01:58:37.184Z,28.90
2023-04-10T02:01:39.240Z,28.90
2023-04-10T02:04:41.715Z,29.00
2023-04-10T02:08:15.585Z,29.00
2023-04-10T02:11:42.685Z,28.90
2023-04-10T02:14:47.257Z,28.90
2023-04-10T02:17:51.811Z,28.80
2023-04-10T02:20:54.953Z,28.80
2023-04-10T02:23:58.433Z,28.80
2023-04-10T02:27:01.596Z,28.80
2023-04-10T02:30:04.775Z,28.70
2023-04-10T02:33:06.768Z,28.80
2023-04-10T02:36:09.794Z,28.80
2023-04-10T02:39:11.854Z,28.90
2023-04-10T02:42:14.153Z,28.90
2023-04-10T02:45:16.228Z,28.90
2023-04-10T02:48:18.567Z,28.90
2023-04-10T02:51:20.692Z,28.90
2023-04-10T02:54:23.019Z,28.90
2023-04-10T02:57:24.966Z,28.80
2023-04-10T03:00:27.642Z,28.80
2023-04-10T03:03:29.841Z,28.80
2023-04-10T03:06:32.332Z,28.70
2023-04-10T03:09:34.257Z,28.70
2023-04-10T03:12:36.454Z,28.70
2023-04-10T03:15:38.544Z,28.70
2023-04-10T03:18:40.820Z,28.70
2023-04-10T03:21:42.819Z,28.60
2023-04-10T03:24:45.147Z,28.60
2023-04-10T03:27:47.655Z,28.70
2023-04-10T03:30:52.867Z,28.70
2023-04-10T03:33:55.073Z,28.60
2023-04-10T03:36:57.402Z,28.60
2023-04-10T03:39:59.325Z,28.60
2023-04-10T03:43:01.604Z,28.70
2023-04-10T03:46:03.590Z,28.60
2023-04-10T03:49:05.894Z,28.70
2023-04-10T03:52:07.839Z,28.70
2023-04-10T03:55:10.498Z,28.80
2023-04-10T03:58:13.188Z,28.80
2023-04-10T04:01:15.723Z,28.70
2023-04-10T04:04:17.919Z,28.70
2023-04-10T04:07:20.391Z,28.80
2023-04-10T04:10:22.447Z,28.90
2023-04-10T04:13:24.729Z,29.00
2023-04-10T04:16:27.342Z,29.00
2023-04-10T04:19:29.678Z,29.10
2023-04-10T04:22:31.665Z,29.10
2023-04-10T04:25:33.937Z,29.10
2023-04-10T04:28:35.963Z,29.10
2023-04-10T04:31:38.268Z,29.10
2023-04-10T04:34:40.261Z,29.10
2023-04-10T04:37:42.562Z,29.10
2023-04-10T04:40:44.541Z,29.30
2023-04-10T04:43:47.535Z,29.40
2023-04-10T04:46:49.530Z,29.50
2023-04-10T04:49:51.889Z,29.50
2023-04-10T04:52:53.850Z,29.60
2023-04-10T04:55:56.095Z,29.50
2023-04-10T04:58:57.985Z,29.60
2023-04-10T05:02:00.351Z,29.60
2023-04-10T05:05:02.512Z,29.70
2023-04-10T05:08:04.959Z,29.70
2023-04-10T05:11:07.224Z,29.70
2023-04-10T05:14:09.441Z,29.80
2023-04-10T05:17:11.694Z,29.90
2023-04-10T05:20:13.980Z,29.90
2023-04-10T05:23:16.760Z,30.00
2023-04-10T05:26:19.057Z,30.10
2023-04-10T05:29:21.068Z,30.20
2023-04-10T05:32:23.378Z,30.10
2023-04-10T05:35:25.605Z,30.20
2023-04-10T05:38:27.878Z,30.30
2023-04-10T05:41:29.886Z,30.40
2023-04-10T05:44:32.106Z,30.40
2023-04-10T05:47:34.159Z,30.50
2023-04-10T05:50:36.606Z,30.60
2023-04-10T05:53:38.674Z,30.60
2023-04-10T05:56:40.938Z,30.70
2023-04-10T05:59:42.926Z,30.90
2023-04-10T06:02:45.305Z,30.90
2023-04-10T06:05:47.728Z,31.00
2023-04-10T06:08:50.027Z,31.10
2023-04-10T06:11:53.503Z,31.30
2023-04-10T06:14:55.911Z,31.30
2023-04-10T06:17:58.019Z,31.40
2023-04-10T06:21:01.928Z,31.50
2023-04-10T06:24:04.145Z,31.60
2023-04-10T06:27:06.324Z,31.60
2023-04-10T06:30:09.121Z,31.70
2023-04-10T06:33:11.502Z,31.80
2023-04-10T06:36:13.421Z,31.80
2023-04-10T06:39:15.713Z,32.00
2023-04-10T06:42:17.722Z,32.10
2023-04-10T06:45:20.087Z,32.20
2023-04-10T06:48:22.078Z,32.20
2023-04-10T06:51:24.367Z,32.30
2023-04-10T06:54:26.393Z,32.30
2023-04-10T06:57:28.897Z,32.30
2023-04-10T07:00:31.279Z,32.30
2023-04-10T07:03:33.921Z,32.40
2023-04-10T07:06:35.999Z,32.50
2023-04-10T07:09:38.371Z,32.60
2023-04-10T07:12:40.328Z,32.80
2023-04-10T07:15:42.564Z,32.80
2023-04-10T07:18:46.314Z,33.10
2023-04-10T07:21:50.162Z,33.10
2023-04-10T07:24:52.473Z,33.30
2023-04-10T07:27:54.725Z,33.10
2023-04-10T07:30:57.125Z,33.00
2023-04-10T07:34:02.160Z,33.00
2023-04-10T07:37:04.191Z,33.00
2023-04-10T07:40:08.361Z,32.90
2023-04-10T07:43:10.468Z,33.10
2023-04-10T07:46:12.849Z,33.20
2023-04-10T07:49:17.250Z,33.40
2023-04-10T07:52:19.677Z,33.40
2023-04-10T07:55:21.854Z,33.60
2023-04-10T07:58:24.151Z,33.60
2023-04-10T08:01:26.216Z,33.50
2023-04-10T08:04:28.546Z,33.40
2023-04-10T08:07:31.381Z,33.60
2023-04-10T08:10:35.883Z,33.60
2023-04-10T08:13:37.918Z,33.50
2023-04-10T08:16:40.434Z,33.40
2023-04-10T08:19:43.490Z,33.40
2023-04-10T08:22:46.019Z,33.50
2023-04-10T08:25:48.234Z,33.50
2023-04-10T08:28:52.630Z,33.60
2023-04-10T08:31:55.666Z,33.40
2023-04-10T08:34:58.063Z,33.70
2023-04-10T08:38:12.530Z,33.60
2023-04-10T08:41:18.391Z,33.80
2023-04-10T08:44:23.005Z,33.80
2023-04-10T08:47:29.882Z,33.90
2023-04-10T08:50:36.201Z,34.00
2023-04-10T08:53:43.452Z,34.00
2023-04-10T08:56:51.721Z,34.20
2023-04-10T08:59:53.915Z,34.20
2023-04-10T09:02:58.484Z,34.30
2023-04-10T09:06:04.901Z,34.50
2023-04-10T09:09:07.501Z,34.70
2023-04-10T09:12:10.012Z,34.80
2023-04-10T09:15:12.163Z,34.60
2023-04-10T09:18:14.511Z,34.60
2023-04-10T09:21:19.383Z,34.70
2023-04-10T09:24:21.959Z,35.00
2023-04-10T09:27:35.617Z,34.80
2023-04-10T09:30:40.465Z,34.90
2023-04-10T09:33:42.493Z,35.20
2023-04-10T09:37:07.949Z,35.30
2023-04-10T09:40:24.664Z,35.50
2023-04-10T09:43:27.714Z,35.70
2023-04-10T09:46:35.770Z,35.40
2023-04-10T09:49:52.481Z,34.80
2023-04-10T09:52:58.132Z,35.10
2023-04-10T09:56:00.878Z,34.60
2023-04-10T09:59:04.816Z,34.30
2023-04-10T10:02:11.447Z,34.20
2023-04-10T10:05:13.601Z,34.40
2023-04-10T10:08:16.817Z,34.40
2023-04-10T10:11:23.217Z,34.30
2023-04-10T10:14:28.984Z,34.30
2023-04-10T10:17:38.963Z,34.20
2023-04-10T10:20:44.307Z,34.10
2023-04-10T10:23:48.319Z,34.40
2023-04-10T10:30:28.901Z,33.80
2023-04-10T10:33:36.013Z,33.60
2023-04-10T10:36:39.881Z,33.60
2023-04-10T10:39:55.440Z,33.80
2023-04-10T10:43:18.997Z,33.80
2023-04-10T10:46:34.592Z,34.10
2023-04-10T10:49:56.319Z,34.20
2023-04-10T10:53:04.571Z,34.30
2023-04-10T10:56:19.009Z,34.60
2023-04-10T10:59:46.004Z,34.70
2023-04-10T11:03:13.052Z,34.50
2023-04-10T11:06:22.399Z,34.30
2023-04-10T11:09:51.078Z,34.00
2023-04-10T11:13:18.308Z,34.10
2023-04-10T11:16:21.326Z,33.90
2023-04-10T11:19:26.181Z,34.20
2023-04-10T11:22:30.396Z,34.10
2023-04-10T11:25:51.493Z,34.10
2023-04-10T11:28:53.796Z,34.30
2023-04-10T11:32:06.590Z,33.90
2023-04-10T11:35:11.815Z,34.20
2023-04-10T11:38:16.615Z,34.30
2023-04-10T11:41:28.608Z,34.30
2023-04-10T11:44:39.576Z,34.20
2023-04-10T11:47:41.725Z,34.20
2023-04-10T11:50:44.262Z,33.90
2023-04-10T11:53:46.353Z,34.20
2023-04-10T11:57:13.083Z,34.40
2023-04-10T12:00:24.406Z,34.40
2023-04-10T12:03:36.999Z,34.20
2023-04-10T12:06:47.590Z,34.20
2023-04-10T12:09:57.332Z,34.50
2023-04-10T12:13:01.027Z,34.70
2023-04-10T12:16:15.580Z,34.50
2023-04-10T12:19:18.324Z,34.50
2023-04-10T12:22:21.324Z,34.60
2023-04-10T12:25:25.852Z,34.90
2023-04-10T12:28:28.197Z,34.80
2023-04-10T12:31:32.660Z,34.80
2023-04-10T12:34:41.898Z,34.80
2023-04-10T12:37:54.724Z,34.60
2023-04-10T12:41:03.820Z,34.60
2023-04-10T12:44:20.700Z,34.60
2023-04-10T12:47:23.913Z,34.60
2023-04-10T12:50:30.446Z,34.60
2023-04-10T12:53:47.623Z,34.40
2023-04-10T12:56:54.595Z,34.10
2023-04-10T13:00:00.528Z,34.50
2023-04-10T13:03:04.365Z,34.50
2023-04-10T13:06:07.553Z,34.70
2023-04-10T13:09:09.917Z,34.70
2023-04-10T13:12:12.804Z,34.80
2023-04-10T13:15:16.968Z,34.70
2023-04-10T13:18:31.468Z,34.90
2023-04-10T13:21:34.156Z,34.90
2023-04-10T13:24:39.429Z,34.60
2023-04-10T13:27:41.686Z,34.60
2023-04-10T13:30:51.097Z,34.50
2023-04-10T13:33:53.367Z,34.60
2023-04-10T13:36:55.487Z,34.40
2023-04-10T13:40:03.075Z,34.70
2023-04-10T13:43:06.434Z,34.60
2023-04-10T13:46:08.705Z,34.40
2023-04-10T13:49:20.373Z,34.60
2023-04-10T13:52:22.877Z,34.60
2023-04-10T13:55:29.512Z,34.70
2023-04-10T13:58:35.812Z,34.60
2023-04-10T14:01:43.859Z,34.60
2023-04-10T14:04:57.238Z,34.90
2023-04-10T14:08:01.324Z,35.00
2023-04-10T14:11:07.124Z,34.60
2023-04-10T14:14:33.252Z,34.70
2023-04-10T14:17:49.587Z,34.50
2023-04-10T14:20:51.540Z,34.40
2023-04-10T14:24:24.022Z,34.60
2023-04-10T14:27:27.663Z,34.50
2023-04-10T14:30:35.387Z,34.70
2023-04-10T14:33:37.330Z,34.70
2023-04-10T14:36:45.347Z,34.60
2023-04-10T14:39:47.460Z,34.30
2023-04-10T14:42:53.222Z,34.60
2023-04-10T14:45:55.384Z,34.50
2023-04-10T14:48:57.640Z,34.70
2023-04-10T14:52:08.533Z,34.80
2023-04-10T14:55:13.498Z,34.90
2023-04-10T14:58:21.194Z,35.10
2023-04-10T15:01:23.705Z,34.80
2023-04-10T15:04:25.850Z,34.80
2023-04-10T15:07:36.807Z,34.90
2023-04-10T15:10:38.960Z,34.60
2023-04-10T15:13:45.422Z,34.60
2023-04-10T15:16:47.476Z,34.80
2023-04-10T15:20:05.032Z,34.90
2023-04-10T15:23:09.691Z,34.70
2023-04-10T15:26:15.815Z,34.70
2023-04-10T15:29:21.159Z,34.40
2023-04-10T15:32:23.472Z,34.50
2023-04-10T15:35:27.874Z,34.70
2023-04-10T15:38:30.511Z,34.70
2023-04-10T15:41:35.637Z,34.90
2023-04-10T15:44:37.874Z,34.90
2023-04-10T15:47:39.965Z,35.00
2023-04-10T15:50:43.222Z,35.00
2023-04-10T15:53:45.219Z,35.10
2023-04-10T15:56:47.565Z,34.80
2023-04-10T15:59:53.616Z,34.60
2023-04-10T16:02:56.774Z,34.90
2023-04-10T16:09:48.604Z,35.00
2023-04-10T16:12:50.729Z,34.80
2023-04-10T16:15:55.755Z,34.70
2023-04-10T16:18:59.122Z,34.70
2023-04-10T16:22:02.879Z,34.70
2023-04-10T16:25:37.123Z,34.50
2023-04-10T16:28:39.340Z,34.50
2023-04-10T16:31:41.435Z,34.60
2023-04-10T16:34:43.840Z,34.60
2023-04-10T16:37:46.483Z,34.70
2023-04-10T16:40:48.703Z,34.60
2023-04-10T16:43:50.707Z,34.40
2023-04-10T16:46:55.940Z,34.40
2023-04-10T16:49:57.903Z,34.30
2023-04-10T16:53:00.201Z,34.40
2023-04-10T16:56:04.870Z,34.40
2023-04-10T16:59:08.863Z,34.30
2023-04-10T17:02:10.927Z,34.40
2023-04-10T17:05:13.760Z,34.30
2023-04-10T17:08:18.108Z,34.30
2023-04-10T17:11:23.351Z,34.40
2023-04-10T17:14:35.194Z,34.30
2023-04-10T17:17:51.342Z,34.20
2023-04-10T17:20:53.289Z,34.20
2023-04-10T17:23:55.702Z,34.20
2023-04-10T17:26:58.036Z,34.20
2023-04-10T17:30:00.625Z,34.20
2023-04-10T17:33:02.697Z,34.10
2023-04-10T17:36:05.215Z,34.00
2023-04-10T17:39:07.384Z,34.00
2023-04-10T17:42:09.770Z,33.90
2023-04-10T17:45:12.368Z,33.80
2023-04-10T17:48:14.739Z,33.80
2023-04-10T17:51:16.778Z,33.70
2023-04-10T17:54:19.028Z,33.60
2023-04-10T17:57:38.857Z,33.50
2023-04-10T18:00:42.808Z,33.30
2023-04-10T18:03:44.891Z,33.20
2023-04-10T18:06:47.300Z,33.10
2023-04-10T18:09:49.295Z,33.00
2023-04-10T18:12:51.608Z,32.90
2023-04-10T18:15:53.566Z,32.80
2023-04-10T18:18:55.983Z,32.70
2023-04-10T18:21:58.068Z,32.70
2023-04-10T18:25:01.049Z,32.60
2023-04-10T18:31:08.425Z,32.50
2023-04-10T18:34:10.803Z,32.40
2023-04-10T18:37:13.149Z,32.20
2023-04-10T18:40:16.729Z,32.20
2023-04-10T18:43:19.371Z,32.20
2023-04-10T18:46:24.546Z,32.10
2023-04-10T18:49:26.873Z,32.10
2023-04-10T18:52:28.931Z,32.00
2023-04-10T18:55:31.200Z,31.90
2023-04-10T18:58:34.980Z,31.90
2023-04-10T19:01:40.828Z,31.80
2023-04-10T19:04:43.207Z,31.80
2023-04-10T19:07:56.784Z,31.70
2023-04-10T19:11:07.355Z,31.70
2023-04-10T19:14:09.959Z,31.60
2023-04-10T19:17:12.721Z,31.60
2023-04-10T19:20:15.700Z,31.50
2023-04-10T19:23:17.774Z,31.40
2023-04-10T19:26:20.561Z,31.40
2023-04-10T19:29:22.794Z,31.40
2023-04-10T19:32:25.240Z,31.40
2023-04-10T19:35:27.514Z,31.40
2023-04-10T19:38:30.639Z,31.40
2023-04-10T19:41:32.963Z,31.30
2023-04-10T19:44:38.254Z,31.30
2023-04-10T19:47:40.754Z,31.20
2023-04-10T19:50:43.034Z,31.20
2023-04-10T19:53:45.393Z,31.20
2023-04-10T19:56:47.642Z,31.20
2023-04-10T19:59:49.658Z,31.10
2023-04-10T20:02:52.158Z,31.10
2023-04-10T20:05:54.389Z,31.10
2023-04-10T20:08:57.361Z,31.10
2023-04-10T20:11:59.562Z,31.10
2023-04-10T20:15:03.454Z,31.00
2023-04-10T20:18:05.560Z,31.00
2023-04-10T20:21:08.276Z,31.00
2023-04-10T20:24:10.336Z,30.90
2023-04-10T20:27:15.328Z,30.90
2023-04-10T20:30:17.196Z,30.90
2023-04-10T20:33:19.600Z,30.90
2023-04-10T20:36:21.717Z,30.80
2023-04-10T20:39:24.493Z,30.80
2023-04-10T20:42:26.519Z,30.70
2023-04-10T20:45:28.966Z,30.70
2023-04-10T20:48:31.437Z,30.60
2023-04-10T20:51:37.187Z,30.60
2023-04-10T20:54:39.299Z,30.60
2023-04-10T20:57:41.481Z,30.60
2023-04-10T21:00:43.472Z,30.60
2023-04-10T21:03:46.139Z,30.50
2023-04-10T21:06:48.112Z,30.50
2023-04-10T21:09:50.311Z,30.50
2023-04-10T21:12:52.354Z,30.50
2023-04-10T21:15:54.607Z,30.50
2023-04-10T21:18:56.884Z,30.50
2023-04-10T21:21:59.135Z,30.50
2023-04-10T21:25:01.161Z,30.40
2023-04-10T21:28:03.513Z,30.40
2023-04-10T21:31:05.675Z,30.40
2023-04-10T21:34:08.035Z,30.40
2023-04-10T21:37:10.069Z,30.40
2023-04-10T21:40:12.441Z,30.40
2023-04-10T21:43:14.416Z,30.50
2023-04-10T21:46:16.797Z,30.40
2023-04-10T21:49:19.008Z,30.40
2023-04-10T21:52:21.259Z,30.40
2023-04-10T21:55:23.262Z,30.40
2023-04-10T21:58:25.508Z,30.40
2023-04-10T22:01:27.615Z,30.40
2023-04-10T22:04:30.281Z,30.50
2023-04-10T22:07:32.235Z,30.50
2023-04-10T22:10:35.163Z,30.40
2023-04-10T22:13:37.194Z,30.30
2023-04-10T22:16:39.583Z,30.40
2023-04-10T22:19:41.687Z,30.30
2023-04-10T22:22:43.914Z,30.50
2023-04-10T22:25:45.853Z,30.60
2023-04-10T22:28:48.112Z,30.60
2023-04-10T22:31:50.074Z,30.60
2023-04-10T22:34:52.398Z,30.70
2023-04-10T22:37:54.407Z,30.70
2023-04-10T22:40:56.652Z,30.70
2023-04-10T22:43:58.960Z,30.70
2023-04-10T22:47:01.286Z,30.70
2023-04-10T22:50:03.537Z,30.70
2023-04-10T22:53:05.894Z,30.70
2023-04-10T22:56:09.184Z,30.70
2023-04-10T22:59:11.448Z,30.70
2023-04-10T23:02:13.458Z,30.60
2023-04-10T23:05:15.977Z,30.70
2023-04-10T23:08:18.019Z,30.70
2023-04-10T23:11:20.376Z,30.70
2023-04-10T23:14:22.479Z,30.70
2023-04-10T23:17:24.894Z,30.60
2023-04-10T23:20:26.835Z,30.60
2023-04-10T23:23:29.034Z,30.60
2023-04-10T23:26:31.678Z,30.50
2023-04-10T23:29:34.589Z,30.50
2023-04-10T23:32:36.598Z,30.50
2023-04-10T23:35:38.878Z,30.50
2023-04-10T23:38:40.990Z,30.40
2023-04-10T23:41:43.636Z,30.40
2023-04-10T23:44:45.611Z,30.30
2023-04-10T23:47:50.660Z,30.30
2023-04-10T23:51:03.007Z,30.20
2023-04-10T23:54:06.006Z,30.20
2023-04-10T23:57:08.056Z,30.20
